Time;durP1;ratioP1;P1;durP2;ratioP2;P2;SDS_P1;SDS_P2;PMS_P1;PMS_P2;Temp;Humidity;BMP_temperature;BMP_pressure;BME280_temperature;BME280_humidity;BME280_pressure;Samples;Min_cycle;Max_cycle;Signal;HPM_P1;HPM_P2
2021/07/07 00:01:18;;;;;;;;;;;;;;;19.81;59.78;100839.28;5037480;28;803;-59
2021/07/07 00:03:43;;;;;;;;;;;;;;;19.81;58.97;100838.44;5037116;28;2007;-59
2021/07/07 00:06:08;;;;;;;;;;;;;;;19.80;59.44;100837.56;5037197;28;1962;-60
2021/07/07 00:08:33;;;;;;;;;;;;;;;19.80;59.78;100834.03;5037051;28;1055;-59
2021/07/07 00:10:58;;;;;;;;;;;;;;;19.79;59.84;100824.22;5037678;28;1656;-60
2021/07/07 00:13:23;;;;;;;;;;;;;;;19.79;59.46;100821.50;5037811;28;1021;-60
2021/07/07 00:15:49;;;;;;;;;;;;;;;19.79;59.56;100830.47;5037158;28;874;-59
2021/07/07 00:18:14;;;;;;;;;;;;;;;19.79;59.63;100829.63;5037034;28;1873;-60
2021/07/07 00:20:42;;;;;;;;;;;;;;;19.80;58.80;100825.91;5037587;28;1976;-59
2021/07/07 00:23:07;;;;;;;;;;;;;;;19.79;59.01;100824.22;5036976;28;2024;-59
2021/07/07 00:25:32;;;;;;;;;;;;;;;19.79;59.08;100824.22;5037362;28;866;-60
2021/07/07 00:27:58;;;;;;;;;;;;;;;19.77;58.93;100822.50;5037102;28;1918;-60
2021/07/07 00:30:23;;;;;;;;;;;;;;;19.76;58.96;100823.53;5037017;28;1595;-60
2021/07/07 00:32:48;;;;;;;;;;;;;;;19.76;59.79;100823.53;5037047;28;903;-61
2021/07/07 00:35:13;;;;;;;;;;;;;;;19.75;60.03;100819.13;5036749;28;1893;-60
2021/07/07 00:37:38;;;;;;;;;;;;;;;19.75;59.01;100821.81;5037260;28;1001;-60
2021/07/07 00:40:03;;;;;;;;;;;;;;;19.75;59.61;100824.53;5036574;28;1529;-61
2021/07/07 00:42:28;;;;;;;;;;;;;;;19.76;59.82;100830.78;5036537;28;1944;-60
2021/07/07 00:44:53;;;;;;;;;;;;;;;19.75;59.18;100829.94;5037098;28;815;-60
2021/07/07 00:47:18;;;;;;;;;;;;;;;19.74;59.62;100828.22;5036670;28;1013;-60
2021/07/07 00:49:43;;;;;;;;;;;;;;;19.73;58.99;100825.69;5035840;28;1542;-60
2021/07/07 00:52:08;;;;;;;;;;;;;;;19.73;59.49;100829.25;5036467;28;1896;-60
2021/07/07 00:54:33;;;;;;;;;;;;;;;19.75;59.38;100834.50;5036947;28;949;-60
2021/07/07 00:57:00;;;;;;;;;;;;;;;19.74;59.87;100825.53;5036234;28;1045;-60
2021/07/07 00:59:25;;;;;;;;;;;;;;;19.72;59.95;100819.44;5036456;28;1969;-60
2021/07/07 01:01:50;;;;;;;;;;;;;;;19.72;59.06;100818.56;5036135;28;1004;-60
2021/07/07 01:04:15;;;;;;;;;;;;;;;19.70;59.55;100821.47;5036323;28;1898;-60
2021/07/07 01:06:40;;;;;;;;;;;;;;;19.72;60.18;100824.00;5036578;28;961;-59
2021/07/07 01:09:05;;;;;;;;;;;;;;;19.70;59.58;100821.47;5036143;28;2009;-59
2021/07/07 01:11:30;;;;;;;;;;;;;;;19.70;59.72;100832.28;5035904;28;1127;-60
2021/07/07 01:13:55;;;;;;;;;;;;;;;19.69;59.56;100827.88;5036415;28;997;-60
2021/07/07 01:16:20;;;;;;;;;;;;;;;19.67;59.60;100832.59;5035900;28;898;-60
2021/07/07 01:18:45;;;;;;;;;;;;;;;19.68;59.95;100836.16;5036203;28;906;-60
2021/07/07 01:21:11;;;;;;;;;;;;;;;19.66;59.39;100825.50;5036026;28;2061;-60
2021/07/07 01:23:36;;;;;;;;;;;;;;;19.66;59.76;100830.91;5036692;28;1898;-60
2021/07/07 01:26:03;;;;;;;;;;;;;;;19.66;59.11;100830.91;5036275;28;856;-60
2021/07/07 01:28:28;;;;;;;;;;;;;;;19.66;59.04;100825.50;5035124;28;1972;-60
2021/07/07 01:30:53;;;;;;;;;;;;;;;19.64;59.20;100824.81;5035017;28;1442;-60
2021/07/07 01:33:18;;;;;;;;;;;;;;;19.64;59.10;100824.81;5035951;28;997;-60
2021/07/07 01:35:43;;;;;;;;;;;;;;;19.63;59.45;100817.69;5035575;28;1910;-60
2021/07/07 01:38:08;;;;;;;;;;;;;;;19.62;59.94;100821.41;5035827;28;860;-60
2021/07/07 01:40:33;;;;;;;;;;;;;;;19.61;59.20;100827.81;5035352;28;1599;-60
2021/07/07 01:42:58;;;;;;;;;;;;;;;19.60;59.83;100818.00;5034911;28;2104;-60
2021/07/07 01:45:24;;;;;;;;;;;;;;;19.61;59.61;100816.16;5035699;28;961;-60
2021/07/07 01:47:49;;;;;;;;;;;;;;;19.61;59.50;100817.00;5034913;28;2076;-60
2021/07/07 01:50:14;;;;;;;;;;;;;;;19.60;59.67;100818.00;5035117;28;1474;-60
2021/07/07 01:52:39;;;;;;;;;;;;;;;19.60;59.32;100820.72;5035358;28;1146;-60
2021/07/07 01:55:04;;;;;;;;;;;;;;;19.60;60.01;100823.41;5035490;28;932;-60
2021/07/07 01:57:43;;;;;;;;;;;;;;;19.59;59.68;100821.72;5035761;28;867;-61
2021/07/07 02:00:08;;;;;;;;;;;;;;;19.59;59.26;100823.56;5035507;28;1936;-60
2021/07/07 02:02:33;;;;;;;;;;;;;;;19.58;59.91;100827.28;5035294;28;1890;-60
2021/07/07 02:04:58;;;;;;;;;;;;;;;19.56;59.46;100824.72;5035314;28;1019;-60
2021/07/07 02:07:23;;;;;;;;;;;;;;;19.56;60.04;100821.19;5035502;28;1891;-60
2021/07/07 02:09:48;;;;;;;;;;;;;;;19.56;59.42;100824.72;5034900;28;1655;-60
2021/07/07 02:12:13;;;;;;;;;;;;;;;19.56;59.66;100821.19;5035544;28;890;-60
2021/07/07 02:14:38;;;;;;;;;;;;;;;19.55;60.13;100828.44;5034831;28;1903;-60
2021/07/07 02:17:03;;;;;;;;;;;;;;;19.57;59.07;100820.16;5034800;28;1867;-60
2021/07/07 02:19:28;;;;;;;;;;;;;;;19.53;59.78;100819.63;5035644;28;1640;-59
2021/07/07 02:21:53;;;;;;;;;;;;;;;19.53;59.81;100821.47;5035338;28;1009;-61
2021/07/07 02:24:18;;;;;;;;;;;;;;;19.52;59.30;100828.78;5035356;28;1890;-62
2021/07/07 02:26:44;;;;;;;;;;;;;;;19.53;59.49;100829.59;5034468;28;1897;-61
2021/07/07 02:29:09;;;;;;;;;;;;;;;19.51;59.56;100837.91;5035953;28;882;-61
2021/07/07 02:31:34;;;;;;;;;;;;;;;19.51;60.00;100837.91;5035114;28;788;-60
2021/07/07 02:33:59;;;;;;;;;;;;;;;19.51;59.63;100837.91;5034844;28;1025;-60
2021/07/07 02:36:24;;;;;;;;;;;;;;;19.51;59.81;100842.44;5035475;28;1082;-59
2021/07/07 02:38:49;;;;;;;;;;;;;;;19.51;59.85;100842.44;5036466;28;897;-60
2021/07/07 02:41:14;;;;;;;;;;;;;;;19.50;59.34;100840.75;5038925;28;1922;-58
2021/07/07 02:43:39;;;;;;;;;;;;;;;19.49;59.59;100839.88;5039061;28;1968;-59
2021/07/07 02:46:04;;;;;;;;;;;;;;;19.50;59.25;100843.44;5039207;28;1902;-59
2021/07/07 02:48:29;;;;;;;;;;;;;;;19.49;59.83;100841.72;5038978;28;881;-59
2021/07/07 02:50:54;;;;;;;;;;;;;;;19.49;59.62;100841.72;5039084;28;1060;-58
2021/07/07 02:53:19;;;;;;;;;;;;;;;19.47;59.73;100843.72;5039151;28;1011;-59
2021/07/07 02:55:44;;;;;;;;;;;;;;;19.46;59.53;100844.72;5038729;28;934;-59
2021/07/07 02:58:10;;;;;;;;;;;;;;;19.46;60.26;100840.19;5038852;28;1907;-59
2021/07/07 03:00:35;;;;;;;;;;;;;;;19.47;59.13;100843.72;5038582;28;953;-60
2021/07/07 03:03:00;;;;;;;;;;;;;;;19.45;59.76;100837.63;5038757;28;1893;-59
2021/07/07 03:05:25;;;;;;;;;;;;;;;19.45;59.86;100841.19;5038485;28;1919;-59
2021/07/07 03:07:50;;;;;;;;;;;;;;;19.45;59.62;100838.47;5038492;28;932;-59
2021/07/07 03:10:15;;;;;;;;;;;;;;;19.45;59.04;100835.78;5038417;28;933;-59
2021/07/07 03:12:40;;;;;;;;;;;;;;;19.44;59.81;100831.38;5038029;28;1332;-59
2021/07/07 03:15:05;;;;;;;;;;;;;;;19.44;59.78;100836.78;5037778;28;1871;-59
2021/07/07 03:17:30;;;;;;;;;;;;;;;19.45;59.68;100835.78;5038752;28;1622;-59
2021/07/07 03:19:55;;;;;;;;;;;;;;;19.43;59.22;100829.69;5038617;28;926;-59
2021/07/07 03:22:20;;;;;;;;;;;;;;;19.45;59.45;100837.63;5038499;28;1941;-61
2021/07/07 03:24:46;;;;;;;;;;;;;;;19.43;59.81;100835.09;5038289;28;1166;-61
2021/07/07 03:27:11;;;;;;;;;;;;;;;19.43;59.68;100846.75;5037815;28;1946;-61
2021/07/07 03:29:36;;;;;;;;;;;;;;;19.43;59.60;100835.09;5038348;28;926;-61
2021/07/07 03:32:02;;;;;;;;;;;;;;;19.43;59.63;100830.53;5037864;28;997;-60
2021/07/07 03:34:27;;;;;;;;;;;;;;;19.44;59.36;100836.78;5038043;28;981;-60
2021/07/07 03:36:52;;;;;;;;;;;;;;;19.44;59.93;100836.78;5038395;28;989;-61
2021/07/07 03:39:17;;;;;;;;;;;;;;;19.45;59.89;100838.47;5038103;28;1036;-60
2021/07/07 03:41:42;;;;;;;;;;;;;;;19.45;60.08;100854.69;5037571;28;1940;-60
2021/07/07 03:44:07;;;;;;;;;;;;;;;19.45;59.74;100837.63;5037884;28;1910;-60
2021/07/07 03:46:33;;;;;;;;;;;;;;;19.45;59.93;100843.03;5037959;28;1974;-60
2021/07/07 03:48:58;;;;;;;;;;;;;;;19.45;60.41;100843.88;5038314;28;890;-58
2021/07/07 03:51:23;;;;;;;;;;;;;;;19.48;59.63;100856.25;5037110;28;1234;-60
2021/07/07 03:53:48;;;;;;;;;;;;;;;19.47;59.60;100858.09;5037973;28;993;-60
2021/07/07 03:56:13;;;;;;;;;;;;;;;19.48;59.65;100859.78;5037153;28;2015;-59
2021/07/07 03:58:38;;;;;;;;;;;;;;;19.51;59.71;100854.13;5037565;28;1025;-59
2021/07/07 04:01:03;;;;;;;;;;;;;;;19.52;59.34;100854.97;5037611;28;1001;-59
2021/07/07 04:03:28;;;;;;;;;;;;;;;19.51;60.38;100862.22;5037381;28;1955;-60
2021/07/07 04:05:53;;;;;;;;;;;;;;;19.52;59.20;100869.31;5037550;28;1807;-59
2021/07/07 04:08:19;;;;;;;;;;;;;;;19.57;60.21;100864.28;5037197;28;1009;-60
2021/07/07 04:10:44;;;;;;;;;;;;;;;19.62;60.12;100869.22;5037752;28;977;-60
2021/07/07 04:13:09;;;;;;;;;;;;;;;19.66;59.96;100866.06;5037325;28;1960;-59
2021/07/07 04:15:34;;;;;;;;;;;;;;;19.71;59.45;100866.41;5037729;28;831;-60
2021/07/07 04:17:59;;;;;;;;;;;;;;;19.76;58.96;100874.91;5037735;28;1743;-60
2021/07/07 04:20:24;;;;;;;;;;;;;;;19.72;59.82;100878.06;5036899;28;2090;-60
2021/07/07 04:22:50;;;;;;;;;;;;;;;19.67;59.02;100873.16;5037089;28;1971;-60
2021/07/07 04:25:15;;;;;;;;;;;;;;;19.67;58.76;100881.28;5036605;28;2016;-59
2021/07/07 04:27:40;;;;;;;;;;;;;;;19.67;58.75;100878.56;5037391;28;852;-60
2021/07/07 04:30:05;;;;;;;;;;;;;;;19.71;59.38;100876.38;5037082;28;924;-60
2021/07/07 04:32:30;;;;;;;;;;;;;;;19.77;59.14;100887.41;5037116;28;1452;-60
2021/07/07 04:34:55;;;;;;;;;;;;;;;19.83;58.58;100890.50;5037009;28;865;-59
2021/07/07 04:37:20;;;;;;;;;;;;;;;19.89;58.50;100893.41;5036819;28;2003;-60
2021/07/07 04:39:45;;;;;;;;;;;;;;;19.92;58.43;100894.94;5037216;28;917;-59
2021/07/07 04:42:10;;;;;;;;;;;;;;;19.92;58.50;100890.38;5037053;28;1914;-60
2021/07/07 04:44:35;;;;;;;;;;;;;;;19.94;57.83;100904.59;5036664;28;1976;-60
2021/07/07 04:47:01;;;;;;;;;;;;;;;19.96;58.92;100899.88;5037165;28;1021;-59
2021/07/07 04:49:26;;;;;;;;;;;;;;;19.97;58.86;100903.44;5036837;28;1806;-59
2021/07/07 04:51:51;;;;;;;;;;;;;;;19.98;58.34;100902.44;5036790;28;960;-59
2021/07/07 04:54:16;;;;;;;;;;;;;;;19.99;58.92;100906.84;5036683;28;2090;-59
2021/07/07 04:56:44;;;;;;;;;;;;;;;19.98;58.12;100905.13;5036379;28;1016;-60
2021/07/07 04:59:09;;;;;;;;;;;;;;;20.04;58.35;100904.50;5036897;28;862;-59
2021/07/07 05:01:36;;;;;;;;;;;;;;;20.09;57.92;100902.16;5035826;28;2097;-59
2021/07/07 05:04:01;;;;;;;;;;;;;;;20.13;58.14;100902.69;5035873;28;2050;-60
2021/07/07 05:06:28;;;;;;;;;;;;;;;20.16;58.09;100905.94;5036228;28;1088;-60
2021/07/07 05:08:53;;;;;;;;;;;;;;;20.20;58.39;100912.72;5036306;28;930;-59
2021/07/07 05:11:19;;;;;;;;;;;;;;;20.22;57.20;100909.88;5035840;28;850;-59
2021/07/07 05:13:44;;;;;;;;;;;;;;;20.36;57.78;100915.56;5035670;28;1940;-60
2021/07/07 05:16:09;;;;;;;;;;;;;;;20.49;58.42;100916.97;5036151;28;1750;-61
2021/07/07 05:18:34;;;;;;;;;;;;;;;20.53;57.95;100923.75;5036277;28;1961;-60
2021/07/07 05:20:59;;;;;;;;;;;;;;;20.60;58.42;100922.09;5036127;28;928;-61
2021/07/07 05:23:24;;;;;;;;;;;;;;;20.63;57.81;100917.19;5035842;28;1886;-61
2021/07/07 05:25:49;;;;;;;;;;;;;;;20.70;58.22;100920.09;5038154;28;1762;-62
2021/07/07 05:28:14;;;;;;;;;;;;;;;20.72;58.71;100916.22;5035124;28;1492;-59
2021/07/07 05:30:39;;;;;;;;;;;;;;;20.70;57.90;100917.41;5034946;28;1748;-59
2021/07/07 05:33:06;;;;;;;;;;;;;;;20.71;57.62;100930.78;5035120;28;1633;-59
2021/07/07 05:35:31;;;;;;;;;;;;;;;20.64;57.94;100928.88;5035267;28;1732;-59
2021/07/07 05:37:56;;;;;;;;;;;;;;;20.64;58.10;100924.31;5035290;28;1543;-59
2021/07/07 05:40:23;;;;;;;;;;;;;;;20.64;57.57;100927.00;5034794;28;1519;-60
2021/07/07 05:42:54;;;;;;;;;;;;;;;20.63;57.63;100919.91;5035242;28;1914;-60
2021/07/07 05:45:19;;;;;;;;;;;;;;;20.55;57.55;100924.44;5041101;28;1659;-59
2021/07/07 05:47:44;;;;;;;;;;;;;;;20.54;58.54;100923.59;5042058;28;1701;-60
2021/07/07 05:50:10;;;;;;;;;;;;;;;20.52;58.10;100928.31;5044602;28;1685;-59
2021/07/07 05:52:35;;;;;;;;;;;;;;;20.60;57.98;100935.66;5044301;28;1946;-60
2021/07/07 05:55:00;;;;;;;;;;;;;;;20.68;58.04;100941.09;5042601;28;1646;-60
2021/07/07 05:57:36;;;;;;;;;;;;;;;20.73;57.44;100933.31;5034430;28;1461;-60
2021/07/07 06:00:02;;;;;;;;;;;;;;;20.63;58.22;100933.44;5035018;28;1750;-60
2021/07/07 06:02:27;;;;;;;;;;;;;;;20.59;57.78;100929.38;5035343;28;1890;-59
2021/07/07 06:04:52;;;;;;;;;;;;;;;20.58;58.78;100933.09;5035607;28;1635;-60
2021/07/07 06:07:17;;;;;;;;;;;;;;;20.58;58.62;100940.38;5034744;28;1809;-60
2021/07/07 06:09:42;;;;;;;;;;;;;;;20.53;58.77;100942.72;5035061;28;1883;-60
2021/07/07 06:12:07;;;;;;;;;;;;;;;20.52;59.10;100935.59;5034931;28;1017;-60
2021/07/07 06:14:32;;;;;;;;;;;;;;;20.54;60.34;100939.00;5035157;28;881;-60
2021/07/07 06:16:57;;;;;;;;;;;;;;;20.56;59.46;100947.81;5034999;28;1868;-59
2021/07/07 06:19:22;;;;;;;;;;;;;;;20.53;59.43;100948.13;5035467;28;1052;-60
2021/07/07 06:21:47;;;;;;;;;;;;;;;20.51;60.24;100952.84;5034924;28;1329;-60
2021/07/07 06:24:14;;;;;;;;;;;;;;;20.52;60.34;100958.09;5034747;28;1919;-60
2021/07/07 06:26:39;;;;;;;;;;;;;;;20.59;59.62;100959.16;5034920;28;877;-60
2021/07/07 06:29:05;;;;;;;;;;;;;;;20.65;59.56;100963.06;5035269;28;954;-60
2021/07/07 06:31:30;;;;;;;;;;;;;;;20.71;60.09;100974.13;5035102;28;885;-60
2021/07/07 06:33:55;;;;;;;;;;;;;;;20.69;58.91;100978.84;5035069;28;1025;-59
2021/07/07 06:36:20;;;;;;;;;;;;;;;20.67;58.98;100977.31;5034950;28;1591;-60
2021/07/07 06:38:45;;;;;;;;;;;;;;;20.64;59.08;100983.03;5035006;28;1539;-60
2021/07/07 06:41:10;;;;;;;;;;;;;;;20.63;59.17;100989.47;5034630;28;1556;-60
2021/07/07 06:43:35;;;;;;;;;;;;;;;20.63;59.55;100975.91;5036548;28;1911;-60
2021/07/07 06:46:00;;;;;;;;;;;;;;;20.63;59.16;100971.34;5035183;28;1806;-60
2021/07/07 06:48:25;;;;;;;;;;;;;;;20.69;59.39;100986.13;5033948;28;1263;-61
2021/07/07 06:50:50;;;;;;;;;;;;;;;20.70;59.52;100983.25;5034540;28;1919;-60
2021/07/07 06:53:16;;;;;;;;;;;;;;;20.68;59.64;100990.69;5051132;28;1555;-60
2021/07/07 06:55:41;;;;;;;;;;;;;;;20.67;59.07;100977.31;5039844;28;1682;-60
2021/07/07 06:58:12;;;;;;;;;;;;;;;20.69;59.12;100991.53;5042877;28;1873;-61
2021/07/07 07:00:37;;;;;;;;;;;;;;;20.78;58.90;100985.16;5047560;28;1443;-60
2021/07/07 07:03:02;;;;;;;;;;;;;;;20.82;58.94;100985.66;5054016;28;1963;-60
2021/07/07 07:05:27;;;;;;;;;;;;;;;20.85;58.76;100990.75;5033533;28;1879;-60
2021/07/07 07:07:52;;;;;;;;;;;;;;;20.97;58.62;100994.88;5034784;28;1059;-60
2021/07/07 07:10:17;;;;;;;;;;;;;;;20.99;58.62;101004.53;5034578;28;1029;-60
2021/07/07 07:12:42;;;;;;;;;;;;;;;21.00;58.96;101008.94;5034388;28;1998;-61
2021/07/07 07:15:07;;;;;;;;;;;;;;;21.04;58.67;100999.47;5033035;28;839;-60
2021/07/07 07:17:34;;;;;;;;;;;;;;;21.09;57.93;100999.84;5034696;28;1068;-60
2021/07/07 07:19:59;;;;;;;;;;;;;;;21.15;57.63;101003.75;5035118;28;844;-60
2021/07/07 07:22:24;;;;;;;;;;;;;;;21.21;58.45;101002.28;5034359;28;1890;-60
2021/07/07 07:24:51;;;;;;;;;;;;;;;21.24;57.94;101002.81;5035078;28;791;-61
2021/07/07 07:27:16;;;;;;;;;;;;;;;21.25;58.19;100998.22;5038489;28;791;-60
2021/07/07 07:29:41;;;;;;;;;;;;;;;21.31;57.91;101003.84;5040911;28;1832;-61
2021/07/07 07:32:06;;;;;;;;;;;;;;;21.40;58.77;101015.53;5051897;28;1754;-61
2021/07/07 07:34:31;;;;;;;;;;;;;;;21.38;58.95;101018.41;5038020;28;1563;-61
2021/07/07 07:37:03;;;;;;;;;;;;;;;21.37;57.75;101011.31;5037044;28;2705;-60
2021/07/07 07:39:30;;;;;;;;;;;;;;;21.41;58.07;101019.97;5038380;28;1687;-61
2021/07/07 07:41:55;;;;;;;;;;;;;;;21.40;57.52;101023.69;5057637;28;1719;-61
2021/07/07 07:44:20;;;;;;;;;;;;;;;21.51;58.04;101020.66;5057458;28;1902;-60
2021/07/07 07:46:45;;;;;;;;;;;;;;;21.47;57.79;101025.56;5041391;28;1854;-61
2021/07/07 07:49:13;;;;;;;;;;;;;;;21.40;58.18;101029.09;5042007;28;1653;-61
2021/07/07 07:51:38;;;;;;;;;;;;;;;21.49;57.88;101025.41;5046486;28;1642;-61
2021/07/07 07:54:03;;;;;;;;;;;;;;;21.47;57.95;101022.03;5048376;28;1714;-60
2021/07/07 07:56:28;;;;;;;;;;;;;;;21.43;57.78;101032.34;5040245;28;1600;-61
2021/07/07 07:58:53;;;;;;;;;;;;;;;21.47;58.22;101041.00;5037378;28;1584;-62
2021/07/07 08:01:18;;;;;;;;;;;;;;;21.53;57.08;101039.47;5037117;28;1609;-61
2021/07/07 08:03:44;;;;;;;;;;;;;;;21.60;57.81;101040.50;5038587;28;2089;-61
2021/07/07 08:06:09;;;;;;;;;;;;;;;21.64;57.12;101033.75;5047514;28;1631;-60
2021/07/07 08:08:34;;;;;;;;;;;;;;;21.68;57.06;101041.38;5045944;28;1791;-60
2021/07/07 08:10:59;;;;;;;;;;;;;;;21.70;57.75;101050.19;5048995;28;1583;-60
2021/07/07 08:13:24;;;;;;;;;;;;;;;21.68;57.16;101037.78;5047621;28;1798;-60
2021/07/07 08:15:49;;;;;;;;;;;;;;;21.73;57.17;101038.16;5045167;28;1513;-60
2021/07/07 08:18:14;;;;;;;;;;;;;;;21.79;57.79;101043.78;5047705;28;1803;-61
2021/07/07 08:20:39;;;;;;;;;;;;;;;21.88;57.07;101055.47;5043755;28;1616;-61
2021/07/07 08:23:04;;;;;;;;;;;;;;;21.90;57.37;101052.59;5046612;28;1894;-60
2021/07/07 08:25:29;;;;;;;;;;;;;;;21.81;57.28;101049.88;5047198;28;1657;-60
2021/07/07 08:27:55;;;;;;;;;;;;;;;21.86;57.41;101051.22;5045664;28;1730;-61
2021/07/07 08:30:20;;;;;;;;;;;;;;;21.90;57.00;101052.59;5047589;28;1561;-61
2021/07/07 08:32:45;;;;;;;;;;;;;;;21.85;57.41;101060.41;5045979;28;1700;-61
2021/07/07 08:35:10;;;;;;;;;;;;;;;21.76;57.82;101052.25;5045755;28;1603;-60
2021/07/07 08:37:35;;;;;;;;;;;;;;;21.78;57.14;101058.34;5044030;28;1656;-61
2021/07/07 08:40:00;;;;;;;;;;;;;;;21.79;57.16;101062.75;5036172;28;1488;-60
2021/07/07 08:42:26;;;;;;;;;;;;;;;21.81;56.87;101066.16;5036668;28;1918;-60
2021/07/07 08:44:51;;;;;;;;;;;;;;;21.79;56.81;101064.63;5036595;28;1638;-60
2021/07/07 08:47:16;;;;;;;;;;;;;;;21.76;57.09;101067.66;5036242;28;1861;-60
2021/07/07 08:49:41;;;;;;;;;;;;;;;21.77;56.54;101063.94;5044297;28;1626;-61
2021/07/07 08:52:06;;;;;;;;;;;;;;;21.79;57.36;101062.75;5043166;28;1653;-60
2021/07/07 08:54:32;;;;;;;;;;;;;;;21.79;57.29;101062.75;5050859;28;1802;-60
2021/07/07 08:56:58;;;;;;;;;;;;;;;21.76;56.87;101081.22;5050289;28;1629;-61
2021/07/07 08:59:24;;;;;;;;;;;;;;;21.73;56.92;101071.56;5034938;28;2006;-61
2021/07/07 09:01:49;;;;;;;;;;;;;;;21.61;56.97;101075.59;5040287;28;1682;-60
2021/07/07 09:04:14;;;;;;;;;;;;;;;21.58;56.44;101075.94;5056256;28;1894;-60
2021/07/07 09:06:39;;;;;;;;;;;;;;;21.56;56.55;101080.66;5056662;28;1720;-60
2021/07/07 09:09:06;;;;;;;;;;;;;;;21.61;56.40;101083.75;5056264;28;993;-60
2021/07/07 09:11:31;;;;;;;;;;;;;;;21.66;56.70;101078.69;5056815;28;908;-60
2021/07/07 09:13:56;;;;;;;;;;;;;;;21.66;57.09;101085.97;5038365;28;1853;-60
2021/07/07 09:16:22;;;;;;;;;;;;;;;21.64;56.83;101096.13;5036818;28;1604;-60
2021/07/07 09:18:48;;;;;;;;;;;;;;;21.58;57.41;101092.22;5036376;28;1053;-60
2021/07/07 09:21:13;;;;;;;;;;;;;;;21.60;56.79;101097.47;5036633;28;1494;-60
2021/07/07 09:23:38;;;;;;;;;;;;;;;21.52;57.24;101092.84;5046284;28;1950;-60
2021/07/07 09:26:03;;;;;;;;;;;;;;;21.53;57.32;101091.00;5045513;28;1650;-60
2021/07/07 09:28:29;;;;;;;;;;;;;;;21.55;56.99;101092.53;5041027;28;1588;-59
2021/07/07 09:30:54;;;;;;;;;;;;;;;21.59;56.66;101104.75;5035391;28;1633;-60
2021/07/07 09:33:19;;;;;;;;;;;;;;;21.62;56.96;101109.84;5036359;28;1744;-60
2021/07/07 09:35:44;;;;;;;;;;;;;;;21.62;57.10;101109.84;5051701;28;1994;-59
2021/07/07 09:38:09;;;;;;;;;;;;;;;21.64;57.69;101110.53;5039561;28;2049;-59
2021/07/07 09:40:40;;;;;;;;;;;;;;;21.54;57.26;101112.53;5035285;28;1016;-60
2021/07/07 09:43:05;;;;;;;;;;;;;;;21.68;57.09;101111.03;5036061;28;1957;-60
2021/07/07 09:45:30;;;;;;;;;;;;;;;21.67;56.50;101118.34;5035423;28;1980;-60
2021/07/07 09:47:55;;;;;;;;;;;;;;;21.61;56.78;101118.16;5035150;28;957;-60
2021/07/07 09:50:20;;;;;;;;;;;;;;;21.57;56.88;101120.34;5035574;28;2013;-60
2021/07/07 09:52:45;;;;;;;;;;;;;;;21.53;56.87;101124.38;5035311;28;1170;-60
2021/07/07 09:55:10;;;;;;;;;;;;;;;21.51;57.33;101130.97;5035292;28;1925;-60
2021/07/07 09:57:44;;;;;;;;;;;;;;;21.49;56.27;101136.59;5035426;28;1432;-60
2021/07/07 10:00:09;;;;;;;;;;;;;;;21.46;56.38;101136.91;5035785;28;788;-60
2021/07/07 10:02:34;;;;;;;;;;;;;;;21.42;56.70;101133.69;5035225;28;1958;-59
2021/07/07 10:05:00;;;;;;;;;;;;;;;21.40;56.09;101142.97;5035660;28;960;-60
2021/07/07 10:07:25;;;;;;;;;;;;;;;21.37;56.29;101143.31;5035037;28;869;-60
2021/07/07 10:09:50;;;;;;;;;;;;;;;21.40;55.85;101142.97;5034711;28;1677;-60
2021/07/07 10:12:15;;;;;;;;;;;;;;;21.40;56.53;101153.81;5035397;28;968;-59
2021/07/07 10:14:40;;;;;;;;;;;;;;;21.41;56.12;101150.09;5035239;28;912;-59
2021/07/07 10:17:06;;;;;;;;;;;;;;;21.43;55.93;101142.66;5034720;28;1703;-60
2021/07/07 10:19:31;;;;;;;;;;;;;;;21.43;55.86;101148.09;5034535;28;1737;-60
2021/07/07 10:21:56;;;;;;;;;;;;;;;21.45;55.07;101148.78;5034809;28;2062;-60
2021/07/07 10:24:21;;;;;;;;;;;;;;;21.45;55.84;101144.22;5034953;28;1910;-60
2021/07/07 10:26:46;;;;;;;;;;;;;;;21.44;55.39;101149.78;5034794;28;1647;-59
2021/07/07 10:29:11;;;;;;;;;;;;;;;21.41;55.56;101155.53;5034697;28;1644;-59
2021/07/07 10:31:36;;;;;;;;;;;;;;;21.39;55.61;101157.56;5035158;28;1946;-59
2021/07/07 10:34:01;;;;;;;;;;;;;;;21.38;55.72;101158.56;5035270;28;993;-59
2021/07/07 10:36:32;;;;;;;;;;;;;;;21.30;55.23;101163.97;5033572;28;1636;-59
2021/07/07 10:38:57;;;;;;;;;;;;;;;21.29;56.11;101163.09;5035345;28;836;-60
2021/07/07 10:41:22;;;;;;;;;;;;;;;21.30;55.32;101158.53;5035608;28;889;-59
2021/07/07 10:43:47;;;;;;;;;;;;;;;21.27;56.09;101162.41;5034983;28;1959;-59
2021/07/07 10:46:12;;;;;;;;;;;;;;;21.23;55.17;101163.75;5034638;28;2056;-59
2021/07/07 10:48:37;;;;;;;;;;;;;;;21.23;55.14;101179.16;5035453;28;885;-59
2021/07/07 10:51:02;;;;;;;;;;;;;;;21.25;55.21;101174.44;5034329;28;1661;-59
2021/07/07 10:53:28;;;;;;;;;;;;;;;21.26;56.03;101174.28;5034360;28;1638;-59
2021/07/07 10:55:53;;;;;;;;;;;;;;;21.28;55.62;101172.25;5034996;28;1647;-59
2021/07/07 10:58:18;;;;;;;;;;;;;;;21.27;55.91;101180.53;5034140;28;1586;-60
2021/07/07 11:00:43;;;;;;;;;;;;;;;21.27;56.00;101178.69;5036380;28;1667;-59
2021/07/07 11:03:08;;;;;;;;;;;;;;;21.28;55.51;101187.66;5038242;28;2010;-59
2021/07/07 11:05:33;;;;;;;;;;;;;;;21.23;55.87;101180.00;5038582;28;1020;-59
2021/07/07 11:07:58;;;;;;;;;;;;;;;21.25;55.95;101183.41;5038303;28;906;-60
2021/07/07 11:10:23;;;;;;;;;;;;;;;21.29;56.15;101189.38;5038269;28;1969;-59
2021/07/07 11:12:48;;;;;;;;;;;;;;;21.32;55.71;101189.00;5038475;28;830;-59
2021/07/07 11:15:14;;;;;;;;;;;;;;;21.34;55.76;101192.41;5038343;28;1634;-60
2021/07/07 11:17:39;;;;;;;;;;;;;;;21.34;55.29;101187.84;5037986;28;1810;-60
2021/07/07 11:20:04;;;;;;;;;;;;;;;21.42;55.48;101197.91;5037861;28;1661;-59
2021/07/07 11:22:29;;;;;;;;;;;;;;;21.42;54.44;101193.34;5037267;28;1983;-60
2021/07/07 11:24:54;;;;;;;;;;;;;;;21.47;55.45;101201.84;5038200;28;1727;-60
2021/07/07 11:27:19;;;;;;;;;;;;;;;21.51;54.91;101194.22;5037980;28;1629;-60
2021/07/07 11:29:45;;;;;;;;;;;;;;;21.53;55.19;101200.31;5038048;28;1758;-60
2021/07/07 11:32:10;;;;;;;;;;;;;;;21.52;55.27;101195.91;5038291;28;1896;-60
2021/07/07 11:34:35;;;;;;;;;;;;;;;21.55;55.26;101189.31;5038157;28;1565;-60
2021/07/07 11:37:00;;;;;;;;;;;;;;;21.60;55.10;101200.53;5036719;28;1566;-60
2021/07/07 11:39:25;;;;;;;;;;;;;;;21.58;55.35;101207.97;5038192;28;1519;-61
2021/07/07 11:41:50;;;;;;;;;;;;;;;21.61;55.39;101205.81;5036830;28;803;-60
2021/07/07 11:44:15;;;;;;;;;;;;;;;21.59;55.52;101206.97;5037620;28;1955;-59
2021/07/07 11:46:40;;;;;;;;;;;;;;;21.59;55.05;101215.09;5038170;28;1069;-60
2021/07/07 11:49:05;;;;;;;;;;;;;;;21.57;55.41;101215.25;5037872;28;2432;-61
2021/07/07 11:51:35;;;;;;;;;;;;;;;21.57;55.87;101220.69;5037786;28;913;-61
2021/07/07 11:54:00;;;;;;;;;;;;;;;21.54;55.08;101215.59;5036807;28;1647;-61
2021/07/07 11:56:25;;;;;;;;;;;;;;;21.55;55.13;101228.13;5036801;28;1463;-60
2021/07/07 11:58:50;;;;;;;;;;;;;;;21.55;55.52;101230.84;5036410;28;2784;-60
2021/07/07 12:01:15;;;;;;;;;;;;;;;21.55;55.13;101238.13;5037427;28;1664;-60
2021/07/07 12:03:40;;;;;;;;;;;;;;;21.53;55.28;101241.00;5037637;28;1985;-60
2021/07/07 12:06:05;;;;;;;;;;;;;;;21.52;55.07;101238.44;5037673;28;877;-60
2021/07/07 12:08:31;;;;;;;;;;;;;;;21.48;55.11;101246.09;5037586;28;1962;-60
2021/07/07 12:10:56;;;;;;;;;;;;;;;21.58;55.00;101244.09;5037395;28;783;-60
2021/07/07 12:13:21;;;;;;;;;;;;;;;21.57;54.79;101242.38;5036936;28;1644;-60
2021/07/07 12:15:46;;;;;;;;;;;;;;;21.60;55.05;101242.06;5037135;28;1722;-60
2021/07/07 12:18:11;;;;;;;;;;;;;;;21.65;54.97;101247.88;5036638;28;2045;-61
2021/07/07 12:20:36;;;;;;;;;;;;;;;21.68;55.23;101244.81;5037662;28;887;-60
2021/07/07 12:23:01;;;;;;;;;;;;;;;21.71;55.06;101247.19;5036611;28;1918;-60
2021/07/07 12:25:26;;;;;;;;;;;;;;;21.72;54.88;101251.63;5037153;28;788;-61
2021/07/07 12:27:52;;;;;;;;;;;;;;;21.78;54.81;101245.56;5037615;28;962;-60
2021/07/07 12:30:17;;;;;;;;;;;;;;;21.77;54.03;101260.13;5036828;28;1922;-61
2021/07/07 12:32:42;;;;;;;;;;;;;;;21.73;54.17;101253.31;5036805;28;1663;-62
2021/07/07 12:35:07;;;;;;;;;;;;;;;21.76;53.66;101263.00;5037174;28;1590;-60
2021/07/07 12:37:32;;;;;;;;;;;;;;;21.73;53.83;101258.75;5036483;28;1672;-60